Time;durP1;ratioP1;P1;durP2;ratioP2;P2;SDS_P1;SDS_P2;PMS_P1;PMS_P2;Temp;Humidity;BMP_temperature;BMP_pressure;BME280_temperature;BME280_humidity;BME280_pressure;Samples;Min_cycle;Max_cycle;Signal;HPM_P1;HPM_P2
2021/01/09 00:02:15;;;;;;;26.08;9.13;;;1.40;99.90;;;;;;4956466;29;20034;-91
2021/01/09 00:04:42;;;;;;;28.45;11.15;;;1.40;99.90;;;;;;4939454;29;20086;-92
2021/01/09 00:07:10;;;;;;;19.52;8.73;;;1.50;99.90;;;;;;4939713;29;20082;-91
2021/01/09 00:09:37;;;;;;;31.23;10.93;;;1.40;99.90;;;;;;4940399;29;20122;-91
2021/01/09 00:12:04;;;;;;;31.05;10.15;;;1.40;99.90;;;;;;4940724;29;20094;-89
2021/01/09 00:14:30;;;;;;;26.40;9.93;;;1.40;99.90;;;;;;4939879;29;20043;-92
2021/01/09 00:16:56;;;;;;;30.55;10.02;;;1.40;99.90;;;;;;4939723;29;20183;-91
2021/01/09 00:19:21;;;;;;;30.65;10.30;;;1.40;99.90;;;;;;4939411;29;20046;-91
2021/01/09 00:21:47;;;;;;;26.30;9.30;;;1.40;99.90;;;;;;4939570;29;20031;-91
2021/01/09 00:24:13;;;;;;;24.75;9.60;;;1.40;99.90;;;;;;4939294;29;20035;-90
2021/01/09 00:26:39;;;;;;;23.88;8.63;;;1.40;99.90;;;;;;4939198;29;20034;-91
2021/01/09 00:29:05;;;;;;;22.77;9.85;;;1.40;99.90;;;;;;4939496;29;20043;-90
2021/01/09 00:31:31;;;;;;;21.42;8.75;;;1.40;99.90;;;;;;4939989;29;20031;-91
2021/01/09 00:33:56;;;;;;;21.58;9.88;;;1.40;99.90;;;;;;4939915;29;20110;-91
2021/01/09 00:36:22;;;;;;;32.28;12.13;;;1.40;99.90;;;;;;4940110;29;20086;-91
2021/01/09 00:38:48;;;;;;;34.70;10.13;;;1.40;99.90;;;;;;4940615;29;20553;-91
2021/01/09 00:41:14;;;;;;;22.73;9.48;;;1.50;99.90;;;;;;4940543;29;20035;-91
2021/01/09 00:43:39;;;;;;;30.50;11.05;;;1.50;99.90;;;;;;4939817;29;20732;-90
2021/01/09 00:46:05;;;;;;;36.38;10.95;;;1.50;99.90;;;;;;4938655;29;20436;-90
2021/01/09 00:48:31;;;;;;;27.48;9.05;;;1.50;99.90;;;;;;4940428;29;20031;-90
2021/01/09 00:50:56;;;;;;;27.00;11.30;;;1.40;99.90;;;;;;4938511;29;20032;-91
2021/01/09 00:53:22;;;;;;;31.02;8.77;;;1.50;99.90;;;;;;4938945;29;20040;-91
2021/01/09 00:55:48;;;;;;;29.13;10.00;;;1.50;99.90;;;;;;4939397;29;20035;-89
2021/01/09 00:58:14;;;;;;;30.92;9.82;;;1.40;99.90;;;;;;4939160;29;20027;-91
2021/01/09 01:00:40;;;;;;;24.88;10.80;;;1.40;99.90;;;;;;4939278;29;20055;-91
2021/01/09 01:03:06;;;;;;;29.23;9.48;;;1.40;99.90;;;;;;4940867;29;20030;-91
2021/01/09 01:05:32;;;;;;;25.52;9.13;;;1.40;99.90;;;;;;4939108;29;20083;-91
2021/01/09 01:07:57;;;;;;;20.92;8.85;;;1.50;99.90;;;;;;4939073;29;20559;-91
2021/01/09 01:10:23;;;;;;;21.25;8.27;;;1.40;99.90;;;;;;4938964;29;20031;-90
2021/01/09 01:12:49;;;;;;;24.27;8.57;;;1.40;99.90;;;;;;4939188;29;20500;-91
2021/01/09 01:15:15;;;;;;;21.27;7.53;;;1.50;99.90;;;;;;4938681;29;20039;-90
2021/01/09 01:17:45;;;;;;;22.15;8.25;;;1.50;99.90;;;;;;4938706;29;20034;-91
2021/01/09 01:20:12;;;;;;;29.20;9.85;;;1.50;99.90;;;;;;4938496;29;20489;-91
2021/01/09 01:22:37;;;;;;;15.10;7.55;;;1.50;99.90;;;;;;4938414;29;20031;-90
2021/01/09 01:25:04;;;;;;;29.35;9.82;;;1.50;99.90;;;;;;4938836;29;20094;-90
2021/01/09 01:27:29;;;;;;;22.50;9.35;;;1.50;99.90;;;;;;4938577;29;20496;-92
2021/01/09 01:29:55;;;;;;;27.00;8.77;;;1.50;99.90;;;;;;4938179;29;20066;-92
2021/01/09 01:32:21;;;;;;;18.17;7.72;;;1.50;99.90;;;;;;4938230;29;20038;-90
2021/01/09 01:34:46;;;;;;;24.77;9.00;;;1.50;99.90;;;;;;4938404;29;20030;-88
2021/01/09 01:37:12;;;;;;;23.42;8.25;;;1.50;99.90;;;;;;4938278;29;20461;-89
2021/01/09 01:39:38;;;;;;;23.83;10.02;;;1.50;99.90;;;;;;4938379;29;20070;-90
2021/01/09 01:42:03;;;;;;;28.48;9.60;;;1.50;99.90;;;;;;4938451;29;20042;-91
2021/01/09 01:44:32;;;;;;;17.48;7.43;;;1.50;99.90;;;;;;4942671;29;20055;-90
2021/01/09 01:46:59;;;;;;;42.08;10.32;;;1.50;99.90;;;;;;4938626;29;20042;-91
2021/01/09 01:49:26;;;;;;;25.02;8.32;;;1.50;99.90;;;;;;4955002;28;20035;-91
2021/01/09 01:51:52;;;;;;;25.15;8.23;;;1.50;99.90;;;;;;4960479;28;20054;-92
2021/01/09 01:54:19;;;;;;;13.38;6.43;;;1.50;99.90;;;;;;4947788;28;20061;-93
2021/01/09 01:56:51;;;;;;;20.00;8.95;;;1.50;99.90;;;;;;4947436;28;20023;-92
2021/01/09 01:59:16;;;;;;;15.77;7.00;;;1.50;99.90;;;;;;4946607;28;20038;-92
2021/01/09 02:01:47;;;;;;;21.80;8.07;;;1.50;99.90;;;;;;4948015;28;20553;-93
2021/01/09 02:04:12;;;;;;;17.42;7.97;;;1.50;99.90;;;;;;4952230;28;20050;-91
2021/01/09 02:06:38;;;;;;;20.95;7.70;;;1.50;99.90;;;;;;4951187;29;20035;-90
2021/01/09 02:09:13;;;;;;;23.52;8.30;;;1.50;99.90;;;;;;4947628;28;20031;-92
2021/01/09 02:11:50;;;;;;;12.82;6.70;;;1.50;99.90;;;;;;4946143;28;20035;-91
2021/01/09 02:14:26;;;;;;;19.85;7.15;;;1.60;99.90;;;;;;4957083;28;20074;-91
2021/01/09 02:16:54;;;;;;;18.23;7.63;;;1.50;99.90;;;;;;4954120;29;20031;-91
2021/01/09 02:19:24;;;;;;;19.17;7.57;;;1.50;99.90;;;;;;4937718;29;20103;-91
2021/01/09 02:21:51;;;;;;;23.47;7.63;;;1.60;99.90;;;;;;4938151;29;20314;-90
2021/01/09 02:24:18;;;;;;;19.17;7.63;;;1.50;99.90;;;;;;4938492;29;20035;-91
2021/01/09 02:26:48;;;;;;;22.67;8.05;;;1.50;99.90;;;;;;4939062;29;20028;-90
2021/01/09 02:29:14;;;;;;;13.77;6.45;;;1.50;99.90;;;;;;4938684;29;20035;-90
2021/01/09 02:31:51;;;;;;;19.70;6.93;;;1.60;99.90;;;;;;4940423;29;20058;-91
2021/01/09 02:34:18;;;;;;;16.58;6.63;;;1.60;99.90;;;;;;4941518;29;20039;-91
2021/01/09 02:36:44;;;;;;;18.98;7.00;;;1.60;99.90;;;;;;4941409;29;20031;-91
2021/01/09 02:39:10;;;;;;;22.17;6.78;;;1.50;99.90;;;;;;4941330;29;20558;-91
2021/01/09 02:41:40;;;;;;;18.83;6.20;;;1.50;99.90;;;;;;4941265;29;20125;-92
2021/01/09 02:44:09;;;;;;;16.63;7.22;;;1.50;99.90;;;;;;4941369;29;20031;-91
2021/01/09 02:46:39;;;;;;;19.55;5.75;;;1.50;99.90;;;;;;4941202;29;20051;-90
2021/01/09 02:49:05;;;;;;;14.80;6.10;;;1.50;99.90;;;;;;4941342;29;20027;-91
2021/01/09 02:51:32;;;;;;;13.95;6.30;;;1.50;99.90;;;;;;4940796;29;20023;-92
2021/01/09 02:53:57;;;;;;;15.38;5.70;;;1.50;99.90;;;;;;4941213;29;20023;-90
2021/01/09 02:56:23;;;;;;;14.50;5.43;;;1.50;99.90;;;;;;4941002;29;20035;-90
2021/01/09 02:58:49;;;;;;;13.85;5.95;;;1.50;99.90;;;;;;4941329;29;20086;-91
2021/01/09 03:01:14;;;;;;;15.60;5.20;;;1.50;99.90;;;;;;4940946;29;20094;-90
2021/01/09 03:03:40;;;;;;;17.88;4.80;;;1.50;99.90;;;;;;4941235;29;20027;-90
2021/01/09 03:06:07;;;;;;;14.05;4.60;;;1.60;99.90;;;;;;4957980;29;20024;-90
2021/01/09 03:08:33;;;;;;;14.45;5.40;;;1.60;99.90;;;;;;4940716;29;20437;-91
2021/01/09 03:10:59;;;;;;;10.43;4.43;;;1.60;99.90;;;;;;4940758;29;20074;-90
2021/01/09 03:13:24;;;;;;;13.80;4.05;;;1.60;99.90;;;;;;4940631;29;20062;-91
2021/01/09 03:15:50;;;;;;;13.05;4.55;;;1.60;99.90;;;;;;4940616;29;20037;-90
2021/01/09 03:18:16;;;;;;;8.32;4.22;;;1.60;99.90;;;;;;4940523;29;20075;-91
2021/01/09 03:20:41;;;;;;;10.38;4.20;;;1.50;99.90;;;;;;4940385;29;20047;-92
2021/01/09 03:23:07;;;;;;;11.52;3.95;;;1.60;99.90;;;;;;4940865;29;20026;-90
2021/01/09 03:25:33;;;;;;;11.43;3.63;;;1.60;99.90;;;;;;4956843;29;20496;-90
2021/01/09 03:27:58;;;;;;;18.02;4.50;;;1.60;99.90;;;;;;4940718;29;20055;-91
2021/01/09 03:30:24;;;;;;;21.00;4.72;;;1.60;99.90;;;;;;4940553;29;20038;-91
2021/01/09 03:32:50;;;;;;;13.98;4.85;;;1.60;99.90;;;;;;4940446;29;20031;-90
2021/01/09 03:35:16;;;;;;;14.50;3.92;;;1.60;99.90;;;;;;4940414;29;20389;-91
2021/01/09 03:37:41;;;;;;;21.23;8.57;;;1.60;99.90;;;;;;4940720;29;20457;-91
2021/01/09 03:40:08;;;;;;;24.33;7.85;;;1.60;99.90;;;;;;4940231;29;20089;-90
2021/01/09 03:42:33;;;;;;;21.70;7.80;;;1.60;99.90;;;;;;4939248;29;20054;-90
2021/01/09 03:44:59;;;;;;;14.65;5.30;;;1.60;99.90;;;;;;4940126;29;20074;-90
2021/01/09 03:47:25;;;;;;;19.33;7.85;;;1.50;99.90;;;;;;4940141;29;20106;-90
2021/01/09 03:49:51;;;;;;;20.77;6.65;;;1.60;99.90;;;;;;4940348;29;20041;-91
2021/01/09 03:52:16;;;;;;;10.35;5.43;;;1.60;99.90;;;;;;4940521;29;20028;-90
2021/01/09 03:54:42;;;;;;;14.65;6.35;;;1.50;99.90;;;;;;4940510;29;20035;-91
2021/01/09 03:57:08;;;;;;;13.85;5.55;;;1.50;99.90;;;;;;4940909;29;20059;-90
2021/01/09 03:59:34;;;;;;;21.10;6.00;;;1.50;99.90;;;;;;4941085;29;20047;-90
2021/01/09 04:01:59;;;;;;;17.02;6.13;;;1.60;99.90;;;;;;4941268;29;20035;-90
2021/01/09 04:04:25;;;;;;;15.23;5.35;;;1.50;99.90;;;;;;4940927;29;20035;-91
2021/01/09 04:06:54;;;;;;;15.50;5.03;;;1.50;99.90;;;;;;4941788;29;20495;-90
2021/01/09 04:09:19;;;;;;;14.05;4.00;;;1.50;99.90;;;;;;4941323;29;20027;-90
2021/01/09 04:11:45;;;;;;;10.07;4.40;;;1.50;99.90;;;;;;4940347;29;20031;-90
2021/01/09 04:14:11;;;;;;;10.45;4.20;;;1.50;99.90;;;;;;4940444;29;20524;-91
2021/01/09 04:16:37;;;;;;;11.63;3.90;;;1.50;99.90;;;;;;4940282;29;20027;-91
2021/01/09 04:19:03;;;;;;;7.60;4.32;;;1.50;99.90;;;;;;4939974;29;20035;-91
2021/01/09 04:21:29;;;;;;;14.13;4.30;;;1.50;99.90;;;;;;4939795;29;20496;-91
2021/01/09 04:23:55;;;;;;;11.10;4.50;;;1.50;99.90;;;;;;4939538;29;20035;-90
2021/01/09 04:26:21;;;;;;;17.95;4.95;;;1.50;99.90;;;;;;4939460;29;20070;-91
2021/01/09 04:28:46;;;;;;;20.48;5.30;;;1.50;99.90;;;;;;4939382;29;20529;-91
2021/01/09 04:31:16;;;;;;;11.93;3.70;;;1.50;99.90;;;;;;4939329;29;20051;-91
2021/01/09 04:33:44;;;;;;;8.10;3.67;;;1.50;99.90;;;;;;4939595;29;20028;-91
2021/01/09 04:36:10;;;;;;;10.65;3.53;;;1.50;99.90;;;;;;4939392;29;20036;-91
2021/01/09 04:38:35;;;;;;;11.77;4.13;;;1.50;99.90;;;;;;4939339;29;20114;-91
2021/01/09 04:41:01;;;;;;;11.75;3.45;;;1.50;99.90;;;;;;4939594;29;20043;-91
2021/01/09 04:43:27;;;;;;;9.25;3.47;;;1.40;99.90;;;;;;4939516;29;20469;-92
2021/01/09 04:45:53;;;;;;;11.75;4.18;;;1.50;99.90;;;;;;4939335;29;20035;-90
2021/01/09 04:48:19;;;;;;;11.68;4.20;;;1.40;99.90;;;;;;4938891;29;20488;-90
2021/01/09 04:50:50;;;;;;;11.48;4.00;;;1.50;99.90;;;;;;4938938;29;20028;-90
2021/01/09 04:53:18;;;;;;;12.73;3.30;;;1.40;99.90;;;;;;4939155;29;20440;-90
2021/01/09 04:55:45;;;;;;;13.48;4.38;;;1.50;99.90;;;;;;4939372;29;20576;-91
2021/01/09 04:58:12;;;;;;;14.18;4.07;;;1.40;99.90;;;;;;4938482;29;20035;-90
2021/01/09 05:00:41;;;;;;;19.35;3.88;;;1.40;99.90;;;;;;4922719;29;20063;-91
2021/01/09 05:03:06;;;;;;;13.48;3.70;;;1.40;99.90;;;;;;4938617;29;20027;-90
2021/01/09 05:05:32;;;;;;;10.90;3.17;;;1.40;99.90;;;;;;4938661;29;20089;-90
2021/01/09 05:07:59;;;;;;;10.10;2.85;;;1.40;99.90;;;;;;4938673;29;20094;-90
2021/01/09 05:10:25;;;;;;;14.95;3.83;;;1.30;99.90;;;;;;4938658;29;20057;-91
2021/01/09 05:12:51;;;;;;;8.00;2.80;;;1.30;99.90;;;;;;4938480;29;20032;-91
2021/01/09 05:15:17;;;;;;;8.02;2.60;;;1.30;99.90;;;;;;4938723;29;20401;-90
2021/01/09 05:17:43;;;;;;;5.35;2.95;;;1.30;99.90;;;;;;4938581;29;20039;-90
2021/01/09 05:20:09;;;;;;;10.48;3.22;;;1.30;99.90;;;;;;4938059;29;20449;-91
2021/01/09 05:22:39;;;;;;;10.93;3.17;;;1.30;99.90;;;;;;4938402;29;20024;-92
2021/01/09 05:25:05;;;;;;;7.40;2.80;;;1.30;99.90;;;;;;4938386;29;20090;-91
2021/01/09 05:27:32;;;;;;;5.15;2.15;;;1.30;99.90;;;;;;4938183;29;20039;-90
2021/01/09 05:29:58;;;;;;;6.93;2.75;;;1.30;99.90;;;;;;4938290;29;20098;-90
2021/01/09 05:32:24;;;;;;;7.72;2.45;;;1.30;99.90;;;;;;4938009;29;20027;-92
2021/01/09 05:34:52;;;;;;;7.38;2.22;;;1.30;99.90;;;;;;4938140;29;20118;-90
2021/01/09 05:37:23;;;;;;;5.22;2.25;;;1.20;99.90;;;;;;4937925;29;20023;-90
2021/01/09 05:39:55;;;;;;;8.40;1.73;;;1.20;99.90;;;;;;4937862;29;20086;-90
2021/01/09 05:42:27;;;;;;;11.77;1.90;;;1.20;99.90;;;;;;4938156;29;20035;-90
2021/01/09 05:44:55;;;;;;;8.60;2.33;;;1.10;99.90;;;;;;4937836;29;20031;-91
2021/01/09 05:47:23;;;;;;;4.80;1.92;;;1.10;99.90;;;;;;4937958;29;20078;-91
2021/01/09 05:49:51;;;;;;;4.68;2.13;;;1.10;99.90;;;;;;4938382;29;20035;-91
2021/01/09 05:52:17;;;;;;;14.20;2.47;;;1.10;99.90;;;;;;4938183;29;20023;-89
2021/01/09 05:54:43;;;;;;;4.72;1.85;;;1.10;99.90;;;;;;4938302;29;20031;-91
2021/01/09 05:57:16;;;;;;;8.52;2.45;;;1.10;99.90;;;;;;4937794;29;20097;-91
2021/01/09 05:59:43;;;;;;;5.82;1.55;;;1.10;99.90;;;;;;4937795;29;20035;-90
2021/01/09 06:02:10;;;;;;;7.10;2.10;;;1.10;99.90;;;;;;4937805;29;20105;-91
2021/01/09 06:04:43;;;;;;;8.57;2.35;;;1.00;99.90;;;;;;4937918;29;20027;-90
2021/01/09 06:07:18;;;;;;;8.27;2.33;;;1.00;99.90;;;;;;4938259;29;20031;-92
2021/01/09 06:10:02;;;;;;;13.85;3.10;;;1.00;99.90;;;;;;4938070;29;20672;-92
2021/01/09 06:12:31;;;;;;;9.48;2.67;;;1.00;99.90;;;;;;4938295;29;20058;-92
2021/01/09 06:15:03;;;;;;;17.77;3.70;;;0.90;99.90;;;;;;4937991;29;20035;-91
2021/01/09 06:17:30;;;;;;;3.78;1.90;;;1.00;99.90;;;;;;4937953;29;20036;-90
2021/01/09 06:19:56;;;;;;;12.60;3.38;;;0.90;99.90;;;;;;4938165;29;20055;-91
2021/01/09 06:22:23;;;;;;;8.50;2.47;;;0.90;99.90;;;;;;4937966;29;20031;-92
2021/01/09 06:24:49;;;;;;;6.25;2.67;;;0.90;99.90;;;;;;4937872;29;20039;-91
2021/01/09 06:27:27;;;;;;;11.18;3.80;;;0.90;99.90;;;;;;4938007;29;20031;-91
2021/01/09 06:29:58;;;;;;;6.90;3.13;;;0.90;99.90;;;;;;4937667;29;20053;-90
2021/01/09 06:32:28;;;;;;;13.05;4.53;;;0.90;99.90;;;;;;4938022;29;20031;-91
2021/01/09 06:34:54;;;;;;;7.20;3.13;;;0.80;99.90;;;;;;4938458;29;20468;-91
2021/01/09 06:37:23;;;;;;;9.18;3.65;;;0.90;99.90;;;;;;4938407;29;20070;-91
2021/01/09 06:39:50;;;;;;;14.52;5.25;;;0.80;99.90;;;;;;4938575;29;20093;-90
2021/01/09 06:42:18;;;;;;;17.80;5.38;;;0.70;99.90;;;;;;4938923;29;20023;-91
2021/01/09 06:44:51;;;;;;;8.40;2.60;;;0.70;99.90;;;;;;4939473;29;20126;-92
2021/01/09 06:47:30;;;;;;;19.02;7.32;;;0.70;99.90;;;;;;4939377;29;20027;-91
2021/01/09 06:50:18;;;;;;;14.05;3.97;;;0.70;99.90;;;;;;4938858;29;20024;-91
2021/01/09 06:52:52;;;;;;;10.90;3.40;;;0.60;99.90;;;;;;4939078;29;20042;-91
2021/01/09 06:55:38;;;;;;;9.20;3.55;;;0.60;99.90;;;;;;4948185;29;20031;-92
2021/01/09 06:58:04;;;;;;;10.05;3.65;;;0.60;99.90;;;;;;4972447;29;20124;-92
2021/01/09 07:00:30;;;;;;;12.02;4.28;;;0.60;99.90;;;;;;4957615;29;20047;-92
2021/01/09 07:03:13;;;;;;;7.60;3.17;;;0.60;99.90;;;;;;4939692;29;20034;-90
2021/01/09 07:05:45;;;;;;;9.15;3.67;;;0.60;99.90;;;;;;4939455;29;20061;-91
2021/01/09 07:08:25;;;;;;;25.38;3.83;;;0.60;99.90;;;;;;4938196;29;20070;-91
2021/01/09 07:10:55;;;;;;;9.25;2.83;;;0.60;99.90;;;;;;4937719;29;20214;-92
2021/01/09 07:13:22;;;;;;;;;;;0.50;99.90;;;;;;4944227;28;20027;-92
2021/01/09 07:16:04;;;;;;;7.97;2.50;;;0.50;99.90;;;;;;4954171;28;19914;-92
2021/01/09 07:18:31;;;;;;;12.80;3.60;;;0.50;99.90;;;;;;4964008;28;20041;-92
2021/01/09 07:20:58;;;;;;;16.50;4.28;;;0.40;99.90;;;;;;4962239;28;20134;-91
2021/01/09 07:23:28;;;;;;;17.20;3.33;;;0.40;99.90;;;;;;4966093;28;20030;-91
2021/01/09 07:25:55;;;;;;;13.95;3.25;;;0.30;99.90;;;;;;4968968;28;20147;-91
2021/01/09 07:28:23;;;;;;;11.60;3.70;;;0.30;99.90;;;;;;4956875;28;20094;-91
2021/01/09 07:31:04;;;;;;;12.68;3.35;;;0.20;99.90;;;;;;4955877;28;20496;-92
2021/01/09 07:33:30;;;;;;;;;;;0.20;99.90;;;;;;4949046;28;20031;-92
2021/01/09 07:35:56;;;;;;;10.43;2.95;;;0.20;99.90;;;;;;4956704;28;19907;-92
2021/01/09 07:38:22;;;;;;;8.02;2.67;;;0.10;99.90;;;;;;4956781;28;20034;-92
2021/01/09 07:40:52;;;;;;;9.05;3.45;;;0.10;99.90;;;;;;4957954;28;20031;-92
2021/01/09 07:43:38;;;;;;;6.75;3.15;;;0.10;99.90;;;;;;4954735;28;20046;-92
2021/01/09 07:46:28;;;;;;;16.75;5.05;;;0.10;99.90;;;;;;4964233;28;20448;-90
2021/01/09 07:49:01;;;;;;;8.07;3.95;;;0.00;99.90;;;;;;4945519;28;20018;-91
2021/01/09 07:51:48;;;;;;;6.55;2.30;;;0.00;99.90;;;;;;4938560;29;20031;-92
2021/01/09 07:54:36;;;;;;;7.38;2.72;;;0.00;99.90;;;;;;4950603;28;20027;-91
2021/01/09 07:57:25;;;;;;;11.07;3.50;;;0.00;99.90;;;;;;4964895;28;20086;-91
2021/01/09 07:59:54;;;;;;;9.85;3.17;;;0.00;99.90;;;;;;4967628;28;20031;-91
2021/01/09 08:02:23;;;;;;;12.60;3.28;;;-0.10;99.90;;;;;;4970193;28;20566;-90
2021/01/09 08:04:49;;;;;;;13.05;4.35;;;-0.10;99.90;;;;;;4947726;29;20035;-92
2021/01/09 08:07:18;;;;;;;15.85;4.65;;;-0.10;99.90;;;;;;4947516;29;20026;-92
2021/01/09 08:09:46;;;;;;;6.55;2.83;;;-0.10;99.90;;;;;;4956524;28;20039;-89
2021/01/09 08:12:12;;;;;;;14.48;4.32;;;-0.20;99.90;;;;;;4955480;28;20137;-89
2021/01/09 08:14:37;;;;;;;13.20;4.13;;;-0.20;99.90;;;;;;4940116;29;20063;-92
2021/01/09 08:17:10;;;;;;;11.15;4.53;;;-0.20;99.90;;;;;;4944246;29;20034;-91
2021/01/09 08:19:39;;;;;;;14.75;3.85;;;-0.20;99.90;;;;;;4949248;29;20213;-92
2021/01/09 08:22:05;;;;;;;18.23;4.05;;;-0.30;99.90;;;;;;4961565;28;20117;-92
2021/01/09 08:24:34;;;;;;;13.00;3.97;;;-0.30;99.90;;;;;;4957772;28;20051;-91
2021/01/09 08:27:03;;;;;;;13.02;4.30;;;-0.30;99.90;;;;;;4961622;28;20041;-93
2021/01/09 08:29:29;;;;;;;12.63;4.07;;;-0.30;99.90;;;;;;4955550;28;20031;-93
2021/01/09 08:31:55;;;;;;;12.27;3.33;;;-0.30;99.90;;;;;;4955436;28;20114;-92
2021/01/09 08:34:22;;;;;;;11.48;3.88;;;-0.40;99.90;;;;;;4944885;28;20039;-92
2021/01/09 08:36:57;;;;;;;8.30;2.90;;;-0.40;99.90;;;;;;4954467;28;20058;-93
2021/01/09 08:39:23;;;;;;;12.77;3.83;;;-0.40;99.90;;;;;;4956422;28;20190;-93
2021/01/09 08:41:50;;;;;;;13.80;3.67;;;-0.40;99.90;;;;;;4951123;28;20031;-92
2021/01/09 08:44:16;;;;;;;8.77;2.92;;;-0.40;99.90;;;;;;4959677;28;20058;-94
2021/01/09 08:46:43;;;;;;;7.45;3.03;;;-0.40;99.90;;;;;;4948034;28;20090;-93
2021/01/09 08:49:26;;;;;;;15.50;3.80;;;-0.40;99.90;;;;;;4945788;28;20063;-93
2021/01/09 08:52:05;;;;;;;8.23;3.17;;;-0.40;99.90;;;;;;4959681;28;20039;-93
2021/01/09 08:54:32;;;;;;;9.68;3.10;;;-0.40;99.90;;;;;;4943251;28;20401;-93
2021/01/09 08:57:01;;;;;;;18.05;4.88;;;-0.40;99.90;;;;;;4960619;28;20159;-94
2021/01/09 08:59:27;;;;;;;15.05;5.13;;;-0.40;99.90;;;;;;4948231;28;20027;-93
2021/01/09 09:02:04;;;;;;;5.93;2.95;;;-0.40;99.90;;;;;;4952593;28;20054;-92
2021/01/09 09:04:31;;;;;;;12.90;4.70;;;-0.40;99.90;;;;;;4960911;28;20035;-89
2021/01/09 09:07:04;;;;;;;10.25;4.07;;;-0.40;99.90;;;;;;4945660;28;20031;-92
2021/01/09 09:09:32;;;;;;;17.75;5.88;;;-0.40;99.90;;;;;;4946044;28;20031;-92
2021/01/09 09:11:58;;;;;;;19.08;5.50;;;-0.40;99.90;;;;;;4944700;28;20027;-90
2021/01/09 09:14:25;;;;;;;15.70;5.70;;;-0.40;99.90;;;;;;4951267;28;20058;-93
2021/01/09 09:17:03;;;;;;;16.92;5.63;;;-0.40;99.90;;;;;;4957783;28;20062;-91
2021/01/09 09:19:37;;;;;;;10.25;4.32;;;-0.40;99.90;;;;;;4944175;28;20077;-93
2021/01/09 09:22:04;;;;;;;19.35;5.78;;;-0.40;99.90;;;;;;4959841;28;20027;-92
2021/01/09 09:24:44;;;;;;;13.85;4.22;;;-0.40;99.90;;;;;;4959296;28;20024;-90
2021/01/09 09:27:23;;;;;;;12.30;3.25;;;-0.30;99.90;;;;;;4955283;28;20118;-92
2021/01/09 09:30:01;;;;;;;14.88;5.32;;;-0.20;99.90;;;;;;4944231;28;20039;-91
2021/01/09 09:32:27;;;;;;;19.35;6.55;;;-0.10;99.90;;;;;;4948255;28;20026;-94
2021/01/09 09:34:56;;;;;;;24.20;7.72;;;0.00;99.90;;;;;;4958400;28;20062;-92
2021/01/09 09:37:21;;;;;;;20.48;6.70;;;0.20;99.90;;;;;;4959610;28;20563;-93
2021/01/09 09:39:47;;;;;;;20.42;6.85;;;0.20;99.90;;;;;;4957602;28;20204;-91
2021/01/09 09:42:13;;;;;;;27.38;7.20;;;0.30;99.90;;;;;;4944729;28;20126;-93
2021/01/09 09:44:44;;;;;;;18.73;6.65;;;0.40;99.90;;;;;;4954836;29;20090;-94
2021/01/09 09:47:24;;;;;;;18.90;7.93;;;0.50;99.90;;;;;;4954792;28;20026;-94
2021/01/09 09:49:50;;;;;;;23.83;9.85;;;0.60;99.90;;;;;;4957085;28;20042;-91
2021/01/09 09:52:20;;;;;;;23.48;8.38;;;0.80;99.90;;;;;;4957783;28;20034;-91
2021/01/09 09:54:47;;;;;;;19.90;7.95;;;1.00;99.90;;;;;;4957791;28;20077;-92
2021/01/09 09:57:20;;;;;;;17.25;6.75;;;1.20;99.90;;;;;;4959256;28;20085;-92
2021/01/09 09:59:46;;;;;;;15.38;6.45;;;1.40;99.90;;;;;;4959099;28;20120;-93
2021/01/09 10:02:11;;;;;;;15.73;5.85;;;1.60;99.90;;;;;;4958930;28;20463;-93
2021/01/09 10:04:44;;;;;;;12.23;4.85;;;1.90;99.90;;;;;;4958949;28;20034;-93
2021/01/09 10:07:23;;;;;;;14.93;5.03;;;2.10;99.90;;;;;;4958311;28;20571;-93
2021/01/09 10:09:49;;;;;;;13.48;4.88;;;2.40;99.90;;;;;;4955948;28;20030;-94
2021/01/09 10:12:15;;;;;;;13.30;3.67;;;2.60;99.90;;;;;;4956338;28;20114;-92
2021/01/09 10:14:41;;;;;;;7.43;3.42;;;2.80;99.90;;;;;;4954260;29;20031;-92
2021/01/09 10:17:14;;;;;;;14.13;4.63;;;3.10;99.90;;;;;;4937951;29;20023;-93
2021/01/09 10:19:39;;;;;;;11.20;4.57;;;3.30;99.90;;;;;;4937490;29;20085;-93
2021/01/09 10:22:05;;;;;;;12.50;5.10;;;3.50;99.90;;;;;;4938286;29;20452;-93
2021/01/09 10:24:31;;;;;;;8.52;3.88;;;3.70;99.90;;;;;;4938863;29;20039;-94
2021/01/09 10:26:56;;;;;;;5.72;3.38;;;3.90;99.90;;;;;;4938533;29;20070;-94
2021/01/09 10:29:22;;;;;;;6.97;3.63;;;4.00;99.90;;;;;;4938503;29;20034;-93
2021/01/09 10:31:47;;;;;;;7.38;3.95;;;4.10;99.90;;;;;;4955050;29;20433;-92
2021/01/09 10:34:13;;;;;;;6.18;3.33;;;4.20;99.90;;;;;;4938449;29;20023;-92
2021/01/09 10:36:39;;;;;;;5.00;3.55;;;4.30;99.90;;;;;;4938486;29;20507;-94
2021/01/09 10:39:07;;;;;;;7.45;4.22;;;4.50;99.90;;;;;;4938540;29;20035;-93
2021/01/09 10:41:32;;;;;;;6.75;4.30;;;4.80;99.90;;;;;;4938696;29;20063;-94
2021/01/09 10:43:58;;;;;;;5.53;3.72;;;5.00;99.90;;;;;;4938867;29;20028;-94
2021/01/09 10:46:26;;;;;;;8.80;4.53;;;5.20;99.90;;;;;;4939150;29;20059;-93
2021/01/09 10:48:52;;;;;;;9.10;4.70;;;5.40;99.90;;;;;;4941917;29;20499;-92
2021/01/09 10:51:20;;;;;;;10.18;5.25;;;5.50;99.90;;;;;;4961808;28;20042;-93
2021/01/09 10:53:46;;;;;;;7.93;4.80;;;5.70;99.90;;;;;;4963054;29;20524;-93
2021/01/09 10:56:12;;;;;;;9.07;4.13;;;5.80;99.90;;;;;;4959717;29;20038;-94
2021/01/09 10:58:38;;;;;;;7.18;3.45;;;6.00;99.90;;;;;;4954545;29;20094;-94
2021/01/09 11:01:08;;;;;;;6.57;3.42;;;6.10;99.90;;;;;;4949508;29;20567;-92
2021/01/09 11:03:34;;;;;;;9.70;4.80;;;6.30;99.90;;;;;;4945175;29;20118;-94
2021/01/09 11:06:00;;;;;;;10.45;5.03;;;6.60;99.90;;;;;;4945122;29;20035;-94
2021/01/09 11:08:26;;;;;;;9.02;4.65;;;6.80;99.90;;;;;;4960278;29;20034;-94
2021/01/09 11:10:53;;;;;;;8.23;4.18;;;6.90;99.90;;;;;;4943239;29;20503;-94
2021/01/09 11:13:20;;;;;;;10.20;5.15;;;7.10;99.90;;;;;;4943198;29;20504;-94
2021/01/09 11:15:46;;;;;;;10.05;5.38;;;7.30;99.90;;;;;;4943126;29;20531;-92
2021/01/09 11:18:12;;;;;;;12.35;5.43;;;7.50;99.90;;;;;;4943119;29;20031;-93
2021/01/09 11:20:39;;;;;;;9.25;4.22;;;7.70;99.90;;;;;;4942573;29;20106;-93
2021/01/09 11:23:05;;;;;;;14.02;5.97;;;7.70;99.90;;;;;;4959063;29;20058;-92
2021/01/09 11:25:34;;;;;;;10.70;5.60;;;7.80;99.90;;;;;;4959015;29;20042;-93
2021/01/09 11:27:59;;;;;;;16.33;7.50;;;7.90;99.90;;;;;;4942870;29;20505;-93
2021/01/09 11:30:25;;;;;;;13.88;7.25;;;8.10;99.90;;;;;;4942256;29;20059;-93
2021/01/09 11:32:51;;;;;;;18.38;8.50;;;8.20;99.90;;;;;;4942474;29;20484;-90
2021/01/09 11:35:16;;;;;;;24.92;11.20;;;8.30;98.90;;;;;;4943608;29;20469;-93
2021/01/09 11:37:42;;;;;;;32.17;14.13;;;8.40;98.30;;;;;;4943183;29;20132;-93
2021/01/09 11:40:08;;;;;;;40.97;17.13;;;8.40;97.30;;;;;;4941820;29;20039;-92
2021/01/09 11:42:34;;;;;;;47.53;19.30;;;8.50;96.40;;;;;;4958650;29;20097;-93
2021/01/09 11:45:00;;;;;;;46.72;21.23;;;8.40;95.40;;;;;;4941796;29;20484;-93
2021/01/09 11:47:25;;;;;;;42.50;19.52;;;8.40;95.50;;;;;;4957330;29;20489;-93
2021/01/09 11:49:51;;;;;;;46.13;20.60;;;8.50;95.40;;;;;;4941744;29;20023;-93
2021/01/09 11:52:17;;;;;;;48.15;20.80;;;8.50;94.90;;;;;;4942015;29;20031;-91
2021/01/09 11:54:42;;;;;;;41.80;19.15;;;8.40;93.60;;;;;;4941125;29;20024;-91
2021/01/09 11:57:08;;;;;;;50.95;21.15;;;8.10;93.50;;;;;;4941535;29;20028;-92
2021/01/09 11:59:33;;;;;;;48.65;19.27;;;7.70;93.40;;;;;;4941135;29;20035;-92
2021/01/09 12:01:59;;;;;;;47.45;20.08;;;7.40;94.30;;;;;;4941039;29;20480;-94
2021/01/09 12:04:25;;;;;;;51.75;22.00;;;7.30;95.10;;;;;;4958170;28;20122;-91
2021/01/09 12:06:57;;;;;;;50.50;21.23;;;7.30;95.30;;;;;;4941183;29;20123;-92
2021/01/09 12:09:22;;;;;;;57.78;25.35;;;7.20;95.50;;;;;;4941099;29;20031;-94
2021/01/09 12:11:52;;;;;;;57.35;23.30;;;7.30;95.90;;;;;;4940960;29;20027;-92
2021/01/09 12:14:17;;;;;;;58.42;24.20;;;7.60;95.90;;;;;;4941015;29;20110;-92
2021/01/09 12:16:43;;;;;;;49.10;21.90;;;7.90;95.50;;;;;;4940615;29;20481;-92
2021/01/09 12:19:08;;;;;;;48.80;20.30;;;8.30;95.00;;;;;;4940912;29;20027;-93
2021/01/09 12:21:34;;;;;;;46.97;18.83;;;8.60;93.70;;;;;;4956449;28;20082;-92
2021/01/09 12:24:01;;;;;;;47.03;19.77;;;8.70;92.30;;;;;;4940645;29;20034;-92
2021/01/09 12:26:27;;;;;;;44.65;17.73;;;8.80;91.90;;;;;;4940624;29;20031;-92
2021/01/09 12:28:53;;;;;;;45.15;21.83;;;8.90;91.20;;;;;;4942143;29;20033;-93
2021/01/09 12:31:19;;;;;;;45.97;19.48;;;8.90;90.70;;;;;;4940614;29;20038;-91
2021/01/09 12:33:45;;;;;;;43.03;19.08;;;8.80;90.40;;;;;;4940462;29;20078;-92
2021/01/09 12:36:16;;;;;;;39.20;17.67;;;8.60;90.10;;;;;;4940351;29;20508;-93
2021/01/09 12:38:42;;;;;;;37.40;18.17;;;8.70;90.50;;;;;;4940488;29;20035;-94
2021/01/09 12:41:07;;;;;;;35.95;16.70;;;8.80;90.60;;;;;;4940902;29;20050;-93
2021/01/09 12:43:33;;;;;;;42.67;18.95;;;9.00;90.00;;;;;;4940269;29;20358;-92
2021/01/09 12:45:58;;;;;;;42.05;19.52;;;9.00;89.00;;;;;;4940243;29;20039;-93
2021/01/09 12:48:24;;;;;;;39.80;19.50;;;9.00;88.90;;;;;;4946410;29;20031;-93
2021/01/09 12:50:50;;;;;;;50.40;21.42;;;8.70;88.70;;;;;;4946971;28;20031;-93
2021/01/09 12:53:16;;;;;;;44.30;19.95;;;8.20;89.40;;;;;;4947188;28;20063;-93